sensor_id;sensor_type;location;lat;lon;timestamp;temperature;humidity
29777;DHT22;16677;52.224;7.484;2023-08-20T00:01:30;17.50;99.90
29777;DHT22;16677;52.224;7.484;2023-08-20T00:03:58;17.70;99.90
29777;DHT22;16677;52.224;7.484;2023-08-20T00:06:25;17.70;99.90
29777;DHT22;16677;52.224;7.484;2023-08-20T00:08:56;17.60;99.90
29777;DHT22;16677;52.224;7.484;2023-08-20T00:11:23;17.60;99.90
29777;DHT22;16677;52.224;7.484;2023-08-20T00:13:50;17.50;99.90
29777;DHT22;16677;52.224;7.484;2023-08-20T00:16:18;17.70;99.90
29777;DHT22;16677;52.224;7.484;2023-08-20T00:18:45;17.80;99.90
29777;DHT22;16677;52.224;7.484;2023-08-20T00:21:14;17.60;99.90
29777;DHT22;16677;52.224;7.484;2023-08-20T00:23:41;17.50;99.90
29777;DHT22;16677;52.224;7.484;2023-08-20T00:26:09;17.50;99.90
29777;DHT22;16677;52.224;7.484;2023-08-20T00:28:37;17.50;99.90
29777;DHT22;16677;52.224;7.484;2023-08-20T00:31:05;17.60;99.90
29777;DHT22;16677;52.224;7.484;2023-08-20T00:33:33;17.60;99.90
29777;DHT22;16677;52.224;7.484;2023-08-20T00:36:00;17.60;99.90
29777;DHT22;16677;52.224;7.484;2023-08-20T00:38:27;17.70;99.90
29777;DHT22;16677;52.224;7.484;2023-08-20T00:40:54;17.70;99.90
29777;DHT22;16677;52.224;7.484;2023-08-20T00:43:22;17.60;99.90
29777;DHT22;16677;52.224;7.484;2023-08-20T00:45:49;17.50;99.90
29777;DHT22;16677;52.224;7.484;2023-08-20T00:48:17;17.40;99.90
29777;DHT22;16677;52.224;7.484;2023-08-20T00:50:44;17.40;99.90
29777;DHT22;16677;52.224;7.484;2023-08-20T00:53:13;17.40;99.90
29777;DHT22;16677;52.224;7.484;2023-08-20T00:55:42;17.50;99.90
29777;DHT22;16677;52.224;7.484;2023-08-20T00:58:11;17.60;99.90
29777;DHT22;16677;52.224;7.484;2023-08-20T01:00:38;17.60;99.90
29777;DHT22;16677;52.224;7.484;2023-08-20T01:03:06;17.60;99.90
29777;DHT22;16677;52.224;7.484;2023-08-20T01:05:38;17.60;99.90
29777;DHT22;16677;52.224;7.484;2023-08-20T01:08:31;17.40;99.90
29777;DHT22;16677;52.224;7.484;2023-08-20T01:11:09;17.30;99.90
29777;DHT22;16677;52.224;7.484;2023-08-20T01:13:39;17.30;99.90
29777;DHT22;16677;52.224;7.484;2023-08-20T01:16:06;17.40;99.90
29777;DHT22;16677;52.224;7.484;2023-08-20T01:18:34;17.40;99.90
29777;DHT22;16677;52.224;7.484;2023-08-20T01:21:11;17.40;99.90
29777;DHT22;16677;52.224;7.484;2023-08-20T01:30:15;17.00;99.90
29777;DHT22;16677;52.224;7.484;2023-08-20T01:32:43;17.00;99.90
29777;DHT22;16677;52.224;7.484;2023-08-20T01:35:13;16.90;99.90
29777;DHT22;16677;52.224;7.484;2023-08-20T01:37:41;16.80;99.90
29777;DHT22;16677;52.224;7.484;2023-08-20T01:40:08;16.90;99.90
29777;DHT22;16677;52.224;7.484;2023-08-20T01:42:40;16.90;99.90
29777;DHT22;16677;52.224;7.484;2023-08-20T01:45:07;16.70;99.90
29777;DHT22;16677;52.224;7.484;2023-08-20T01:47:35;16.80;99.90
29777;DHT22;16677;52.224;7.484;2023-08-20T01:50:03;16.80;99.90
29777;DHT22;16677;52.224;7.484;2023-08-20T01:52:33;16.80;99.90
29777;DHT22;16677;52.224;7.484;2023-08-20T01:55:01;16.70;99.90
29777;DHT22;16677;52.224;7.484;2023-08-20T01:57:29;16.60;99.90
29777;DHT22;16677;52.224;7.484;2023-08-20T01:59:56;16.70;99.90
29777;DHT22;16677;52.224;7.484;2023-08-20T02:02:24;16.70;99.90
29777;DHT22;16677;52.224;7.484;2023-08-20T02:04:52;16.60;99.90
29777;DHT22;16677;52.224;7.484;2023-08-20T02:07:19;16.60;99.90
29777;DHT22;16677;52.224;7.484;2023-08-20T02:09:46;16.60;99.90
29777;DHT22;16677;52.224;7.484;2023-08-20T02:12:13;16.80;99.90
29777;DHT22;16677;52.224;7.484;2023-08-20T02:14:41;16.80;99.90
29777;DHT22;16677;52.224;7.484;2023-08-20T02:17:11;16.90;99.90
29777;DHT22;16677;52.224;7.484;2023-08-20T02:19:39;16.70;99.90
29777;DHT22;16677;52.224;7.484;2023-08-20T02:22:06;16.60;99.90
29777;DHT22;16677;52.224;7.484;2023-08-20T02:24:34;16.60;99.90
29777;DHT22;16677;52.224;7.484;2023-08-20T02:27:01;16.50;99.90
29777;DHT22;16677;52.224;7.484;2023-08-20T02:29:32;16.40;99.90
29777;DHT22;16677;52.224;7.484;2023-08-20T02:31:59;16.50;99.90
29777;DHT22;16677;52.224;7.484;2023-08-20T02:34:26;16.50;99.90
29777;DHT22;16677;52.224;7.484;2023-08-20T02:36:54;16.50;99.90
29777;DHT22;16677;52.224;7.484;2023-08-20T02:39:21;16.70;99.90
29777;DHT22;16677;52.224;7.484;2023-08-20T02:41:48;16.90;99.90
29777;DHT22;16677;52.224;7.484;2023-08-20T02:44:16;17.00;99.90
29777;DHT22;16677;52.224;7.484;2023-08-20T02:46:43;17.00;99.90
29777;DHT22;16677;52.224;7.484;2023-08-20T02:49:11;17.00;99.90
29777;DHT22;16677;52.224;7.484;2023-08-20T02:51:39;17.10;99.90
29777;DHT22;16677;52.224;7.484;2023-08-20T02:54:08;17.10;99.90
29777;DHT22;16677;52.224;7.484;2023-08-20T02:56:35;17.20;99.90
29777;DHT22;16677;52.224;7.484;2023-08-20T02:59:03;17.10;99.90
29777;DHT22;16677;52.224;7.484;2023-08-20T03:01:30;16.90;99.90
29777;DHT22;16677;52.224;7.484;2023-08-20T03:03:57;16.90;99.90
29777;DHT22;16677;52.224;7.484;2023-08-20T03:06:24;16.90;99.90
29777;DHT22;16677;52.224;7.484;2023-08-20T03:08:52;16.90;99.90
29777;DHT22;16677;52.224;7.484;2023-08-20T03:11:19;16.90;99.90
29777;DHT22;16677;52.224;7.484;2023-08-20T03:13:46;16.90;99.90
29777;DHT22;16677;52.224;7.484;2023-08-20T03:16:14;17.00;99.90
29777;DHT22;16677;52.224;7.484;2023-08-20T03:18:41;17.10;99.90
29777;DHT22;16677;52.224;7.484;2023-08-20T03:21:08;17.00;99.90
29777;DHT22;16677;52.224;7.484;2023-08-20T03:23:36;17.00;99.90
29777;DHT22;16677;52.224;7.484;2023-08-20T03:26:03;17.00;99.90
29777;DHT22;16677;52.224;7.484;2023-08-20T03:28:30;17.10;99.90
29777;DHT22;16677;52.224;7.484;2023-08-20T03:31:01;17.10;99.90
29777;DHT22;16677;52.224;7.484;2023-08-20T03:33:28;17.20;99.90
29777;DHT22;16677;52.224;7.484;2023-08-20T03:35:56;17.20;99.90
29777;DHT22;16677;52.224;7.484;2023-08-20T03:38:26;17.00;99.90
29777;DHT22;16677;52.224;7.484;2023-08-20T03:40:55;16.90;99.90
29777;DHT22;16677;52.224;7.484;2023-08-20T03:43:22;16.90;99.90
29777;DHT22;16677;52.224;7.484;2023-08-20T03:45:51;16.90;99.90
29777;DHT22;16677;52.224;7.484;2023-08-20T03:48:19;16.90;99.90
29777;DHT22;16677;52.224;7.484;2023-08-20T03:50:47;16.80;99.90
29777;DHT22;16677;52.224;7.484;2023-08-20T03:53:15;16.70;99.90
29777;DHT22;16677;52.224;7.484;2023-08-20T03:55:47;16.60;99.90
29777;DHT22;16677;52.224;7.484;2023-08-20T03:58:18;16.50;99.90
29777;DHT22;16677;52.224;7.484;2023-08-20T04:00:45;16.50;99.90
29777;DHT22;16677;52.224;7.484;2023-08-20T04:03:13;16.50;99.90
29777;DHT22;16677;52.224;7.484;2023-08-20T04:05:41;16.50;99.90
29777;DHT22;16677;52.224;7.484;2023-08-20T04:08:11;16.50;99.90
29777;DHT22;16677;52.224;7.484;2023-08-20T04:10:43;16.50;99.90
29777;DHT22;16677;52.224;7.484;2023-08-20T04:13:12;16.40;99.90
29777;DHT22;16677;52.224;7.484;2023-08-20T04:15:41;16.50;99.90
29777;DHT22;16677;52.224;7.484;2023-08-20T04:18:08;16.50;99.90
29777;DHT22;16677;52.224;7.484;2023-08-20T04:20:36;16.70;99.90
29777;DHT22;16677;52.224;7.484;2023-08-20T04:23:06;16.70;99.90
29777;DHT22;16677;52.224;7.484;2023-08-20T04:25:35;16.70;99.90
29777;DHT22;16677;52.224;7.484;2023-08-20T04:28:02;16.50;99.90
29777;DHT22;16677;52.224;7.484;2023-08-20T04:30:30;16.40;99.90
29777;DHT22;16677;52.224;7.484;2023-08-20T04:32:57;16.40;99.90
29777;DHT22;16677;52.224;7.484;2023-08-20T04:35:25;16.40;99.90
29777;DHT22;16677;52.224;7.484;2023-08-20T04:37:54;16.40;99.90
29777;DHT22;16677;52.224;7.484;2023-08-20T04:40:22;16.50;99.90
29777;DHT22;16677;52.224;7.484;2023-08-20T04:42:50;16.50;99.90
29777;DHT22;16677;52.224;7.484;2023-08-20T04:45:18;16.60;99.90
29777;DHT22;16677;52.224;7.484;2023-08-20T04:47:46;16.50;99.90
29777;DHT22;16677;52.224;7.484;2023-08-20T04:50:14;16.80;99.90
29777;DHT22;16677;52.224;7.484;2023-08-20T04:52:44;16.80;99.90
29777;DHT22;16677;52.224;7.484;2023-08-20T04:55:11;17.00;99.90
29777;DHT22;16677;52.224;7.484;2023-08-20T04:57:39;17.10;99.90
29777;DHT22;16677;52.224;7.484;2023-08-20T05:00:06;17.10;99.90
29777;DHT22;16677;52.224;7.484;2023-08-20T05:02:34;17.20;99.90
29777;DHT22;16677;52.224;7.484;2023-08-20T05:05:03;17.20;99.90
29777;DHT22;16677;52.224;7.484;2023-08-20T05:07:30;17.20;99.90
29777;DHT22;16677;52.224;7.484;2023-08-20T05:09:57;17.20;96.30
29777;DHT22;16677;52.224;7.484;2023-08-20T05:12:25;17.20;76.00
29777;DHT22;16677;52.224;7.484;2023-08-20T05:14:52;17.30;93.50
29777;DHT22;16677;52.224;7.484;2023-08-20T05:17:19;17.40;88.20
29777;DHT22;16677;52.224;7.484;2023-08-20T05:19:47;17.50;6.80
29777;DHT22;16677;52.224;7.484;2023-08-20T05:22:14;17.50;1.00
29777;DHT22;16677;52.224;7.484;2023-08-20T05:24:41;17.50;1.00
29777;DHT22;16677;52.224;7.484;2023-08-20T05:27:15;17.70;1.00
29777;DHT22;16677;52.224;7.484;2023-08-20T05:29:46;17.80;1.00
29777;DHT22;16677;52.224;7.484;2023-08-20T05:32:14;18.10;1.00
29777;DHT22;16677;52.224;7.484;2023-08-20T05:34:51;18.10;1.00
29777;DHT22;16677;52.224;7.484;2023-08-20T05:37:18;18.30;1.00
29777;DHT22;16677;52.224;7.484;2023-08-20T05:39:46;18.70;1.00
29777;DHT22;16677;52.224;7.484;2023-08-20T05:42:15;19.10;1.00
29777;DHT22;16677;52.224;7.484;2023-08-20T05:44:43;19.30;1.00
29777;DHT22;16677;52.224;7.484;2023-08-20T05:47:11;19.80;1.00
29777;DHT22;16677;52.224;7.484;2023-08-20T05:49:38;19.90;1.00
29777;DHT22;16677;52.224;7.484;2023-08-20T05:52:05;20.60;99.90
29777;DHT22;16677;52.224;7.484;2023-08-20T05:54:33;20.80;1.00
29777;DHT22;16677;52.224;7.484;2023-08-20T05:57:00;20.80;99.90
29777;DHT22;16677;52.224;7.484;2023-08-20T05:59:28;20.80;99.90
29777;DHT22;16677;52.224;7.484;2023-08-20T06:01:56;20.90;1.00
29777;DHT22;16677;52.224;7.484;2023-08-20T06:04:23;21.20;99.90
29777;DHT22;16677;52.224;7.484;2023-08-20T06:06:50;21.50;99.90
29777;DHT22;16677;52.224;7.484;2023-08-20T06:09:18;21.60;99.90
29777;DHT22;16677;52.224;7.484;2023-08-20T06:11:45;22.00;99.90
29777;DHT22;16677;52.224;7.484;2023-08-20T06:14:12;22.10;99.90
29777;DHT22;16677;52.224;7.484;2023-08-20T06:16:39;22.10;99.90
29777;DHT22;16677;52.224;7.484;2023-08-20T06:19:07;22.20;99.90
29777;DHT22;16677;52.224;7.484;2023-08-20T06:21:35;22.30;99.90
29777;DHT22;16677;52.224;7.484;2023-08-20T06:24:03;22.60;1.00
29777;DHT22;16677;52.224;7.484;2023-08-20T06:26:31;22.50;99.90
29777;DHT22;16677;52.224;7.484;2023-08-20T06:28:58;22.10;99.90
29777;DHT22;16677;52.224;7.484;2023-08-20T06:31:25;22.40;99.90
29777;DHT22;16677;52.224;7.484;2023-08-20T06:33:53;22.50;93.30
29777;DHT22;16677;52.224;7.484;2023-08-20T06:36:20;22.90;1.00
29777;DHT22;16677;52.224;7.484;2023-08-20T06:38:49;23.60;99.90
29777;DHT22;16677;52.224;7.484;2023-08-20T06:41:19;23.60;1.00
29777;DHT22;16677;52.224;7.484;2023-08-20T06:43:47;23.70;1.00
29777;DHT22;16677;52.224;7.484;2023-08-20T06:46:15;24.00;1.00
29777;DHT22;16677;52.224;7.484;2023-08-20T06:48:42;23.80;99.90
29777;DHT22;16677;52.224;7.484;2023-08-20T06:51:13;24.00;1.00
29777;DHT22;16677;52.224;7.484;2023-08-20T06:53:42;24.40;1.00
29777;DHT22;16677;52.224;7.484;2023-08-20T06:56:12;24.20;99.90
29777;DHT22;16677;52.224;7.484;2023-08-20T06:58:41;24.40;71.40
29777;DHT22;16677;52.224;7.484;2023-08-20T07:01:09;24.40;1.00
29777;DHT22;16677;52.224;7.484;2023-08-20T07:03:38;24.80;99.90
29777;DHT22;16677;52.224;7.484;2023-08-20T07:06:10;24.80;1.00
29777;DHT22;16677;52.224;7.484;2023-08-20T07:08:38;24.60;99.90
29777;DHT22;16677;52.224;7.484;2023-08-20T07:11:06;24.90;1.00
29777;DHT22;16677;52.224;7.484;2023-08-20T07:13:34;24.90;1.00
29777;DHT22;16677;52.224;7.484;2023-08-20T07:18:29;24.80;7.40
29777;DHT22;16677;52.224;7.484;2023-08-20T07:20:57;24.80;99.90
29777;DHT22;16677;52.224;7.484;2023-08-20T07:23:25;25.30;73.80
29777;DHT22;16677;52.224;7.484;2023-08-20T07:26:07;25.20;99.90
29777;DHT22;16677;52.224;7.484;2023-08-20T07:28:36;25.30;1.00
29777;DHT22;16677;52.224;7.484;2023-08-20T07:31:32;25.30;1.00
29777;DHT22;16677;52.224;7.484;2023-08-20T07:34:01;25.00;1.00
29777;DHT22;16677;52.224;7.484;2023-08-20T07:36:32;24.60;77.90
29777;DHT22;16677;52.224;7.484;2023-08-20T07:39:00;24.50;99.90
29777;DHT22;16677;52.224;7.484;2023-08-20T07:41:29;24.60;99.90
29777;DHT22;16677;52.224;7.484;2023-08-20T07:43:56;25.00;99.90
29777;DHT22;16677;52.224;7.484;2023-08-20T07:46:23;25.30;1.00
29777;DHT22;16677;52.224;7.484;2023-08-20T07:48:50;24.80;99.90
29777;DHT22;16677;52.224;7.484;2023-08-20T07:51:18;24.90;82.20
29777;DHT22;16677;52.224;7.484;2023-08-20T07:53:45;25.10;99.90
29777;DHT22;16677;52.224;7.484;2023-08-20T07:56:13;25.50;1.00
29777;DHT22;16677;52.224;7.484;2023-08-20T07:58:40;25.90;1.00
29777;DHT22;16677;52.224;7.484;2023-08-20T08:01:07;26.50;1.00
29777;DHT22;16677;52.224;7.484;2023-08-20T08:03:34;26.20;1.00
29777;DHT22;16677;52.224;7.484;2023-08-20T08:06:02;25.10;99.90
29777;DHT22;16677;52.224;7.484;2023-08-20T08:08:29;25.20;80.70
29777;DHT22;16677;52.224;7.484;2023-08-20T08:10:56;24.40;99.90
29777;DHT22;16677;52.224;7.484;2023-08-20T08:13:24;23.80;1.00
29777;DHT22;16677;52.224;7.484;2023-08-20T08:15:52;24.40;1.00
29777;DHT22;16677;52.224;7.484;2023-08-20T08:18:24;24.50;1.00
29777;DHT22;16677;52.224;7.484;2023-08-20T08:20:51;25.00;99.90
29777;DHT22;16677;52.224;7.484;2023-08-20T08:23:18;25.40;99.90
29777;DHT22;16677;52.224;7.484;2023-08-20T08:25:46;25.60;99.90
29777;DHT22;16677;52.224;7.484;2023-08-20T08:28:13;26.00;42.60
29777;DHT22;16677;52.224;7.484;2023-08-20T08:30:40;26.20;1.00
29777;DHT22;16677;52.224;7.484;2023-08-20T08:33:07;26.40;1.00
29777;DHT22;16677;52.224;7.484;2023-08-20T08:35:35;26.60;1.00
29777;DHT22;16677;52.224;7.484;2023-08-20T08:38:02;26.50;1.00
29777;DHT22;16677;52.224;7.484;2023-08-20T08:40:30;26.60;1.00
29777;DHT22;16677;52.224;7.484;2023-08-20T08:42:57;25.80;1.00
29777;DHT22;16677;52.224;7.484;2023-08-20T08:45:26;25.70;8.00
29777;DHT22;16677;52.224;7.484;2023-08-20T08:47:54;25.80;1.00
29777;DHT22;16677;52.224;7.484;2023-08-20T08:50:22;26.30;1.00
29777;DHT22;16677;52.224;7.484;2023-08-20T08:52:51;26.60;1.00
29777;DHT22;16677;52.224;7.484;2023-08-20T08:55:21;26.40;1.00
29777;DHT22;16677;52.224;7.484;2023-08-20T08:57:49;25.90;1.00
29777;DHT22;16677;52.224;7.484;2023-08-20T09:00:16;26.00;1.00
29777;DHT22;16677;52.224;7.484;2023-08-20T09:02:43;25.90;1.00
29777;DHT22;16677;52.224;7.484;2023-08-20T09:05:13;26.20;1.00
29777;DHT22;16677;52.224;7.484;2023-08-20T09:07:43;26.30;1.00
29777;DHT22;16677;52.224;7.484;2023-08-20T09:10:11;26.20;1.00
29777;DHT22;16677;52.224;7.484;2023-08-20T09:12:38;26.00;1.00
29777;DHT22;16677;52.224;7.484;2023-08-20T09:15:09;25.70;12.20
29777;DHT22;16677;52.224;7.484;2023-08-20T09:17:37;25.00;99.90
29777;DHT22;16677;52.224;7.484;2023-08-20T09:20:05;25.30;99.90
29777;DHT22;16677;52.224;7.484;2023-08-20T09:22:35;25.50;1.00
29777;DHT22;16677;52.224;7.484;2023-08-20T09:25:04;25.50;1.00
29777;DHT22;16677;52.224;7.484;2023-08-20T09:27:39;25.20;25.80
29777;DHT22;16677;52.224;7.484;2023-08-20T09:30:09;25.60;39.60
29777;DHT22;16677;52.224;7.484;2023-08-20T09:32:37;26.10;1.00
29777;DHT22;16677;52.224;7.484;2023-08-20T09:35:05;26.00;1.00
29777;DHT22;16677;52.224;7.484;2023-08-20T09:37:33;26.10;1.00
29777;DHT22;16677;52.224;7.484;2023-08-20T09:40:01;26.30;1.00
29777;DHT22;16677;52.224;7.484;2023-08-20T09:42:31;26.10;1.00
29777;DHT22;16677;52.224;7.484;2023-08-20T09:45:02;25.60;1.00
29777;DHT22;16677;52.224;7.484;2023-08-20T09:47:35;25.70;1.00
29777;DHT22;16677;52.224;7.484;2023-08-20T09:50:08;26.50;1.00
29777;DHT22;16677;52.224;7.484;2023-08-20T09:52:48;26.80;1.00
29777;DHT22;16677;52.224;7.484;2023-08-20T09:55:30;26.90;1.00
29777;DHT22;16677;52.224;7.484;2023-08-20T09:58:03;27.00;1.00
29777;DHT22;16677;52.224;7.484;2023-08-20T10:00:32;27.10;1.00
29777;DHT22;16677;52.224;7.484;2023-08-20T10:02:59;27.40;1.00
29777;DHT22;16677;52.224;7.484;2023-08-20T10:05:27;27.40;99.90
29777;DHT22;16677;52.224;7.484;2023-08-20T10:07:55;27.50;99.90
29777;DHT22;16677;52.224;7.484;2023-08-20T10:10:22;27.60;99.90
29777;DHT22;16677;52.224;7.484;2023-08-20T10:12:50;27.60;99.90
29777;DHT22;16677;52.224;7.484;2023-08-20T10:15:17;27.60;99.90
29777;DHT22;16677;52.224;7.484;2023-08-20T10:17:45;27.30;99.90
29777;DHT22;16677;52.224;7.484;2023-08-20T10:20:14;27.00;99.90
29777;DHT22;16677;52.224;7.484;2023-08-20T10:22:45;26.60;99.90
29777;DHT22;16677;52.224;7.484;2023-08-20T10:25:23;26.20;1.00
29777;DHT22;16677;52.224;7.484;2023-08-20T10:27:52;26.20;1.00
29777;DHT22;16677;52.224;7.484;2023-08-20T10:30:25;26.50;1.00
29777;DHT22;16677;52.224;7.484;2023-08-20T10:32:53;27.20;99.90
29777;DHT22;16677;52.224;7.484;2023-08-20T10:36:06;27.70;99.90
29777;DHT22;16677;52.224;7.484;2023-08-20T10:38:16;27.80;99.90
29777;DHT22;16677;52.224;7.484;2023-08-20T10:40:52;27.90;99.90
29777;DHT22;16677;52.224;7.484;2023-08-20T10:48:38;27.70;99.90
29777;DHT22;16677;52.224;7.484;2023-08-20T10:51:15;28.00;99.90
29777;DHT22;16677;52.224;7.484;2023-08-20T10:59:28;26.20;99.90
29777;DHT22;16677;52.224;7.484;2023-08-20T11:02:00;25.80;99.90
29777;DHT22;16677;52.224;7.484;2023-08-20T11:04:29;25.80;1.00
29777;DHT22;16677;52.224;7.484;2023-08-20T11:06:59;25.70;1.00
29777;DHT22;16677;52.224;7.484;2023-08-20T11:09:29;25.50;1.00
29777;DHT22;16677;52.224;7.484;2023-08-20T11:11:57;25.70;99.90
29777;DHT22;16677;52.224;7.484;2023-08-20T11:14:25;26.40;99.90
29777;DHT22;16677;52.224;7.484;2023-08-20T11:16:52;26.00;99.90
29777;DHT22;16677;52.224;7.484;2023-08-20T11:19:21;25.70;1.00
29777;DHT22;16677;52.224;7.484;2023-08-20T11:21:50;25.70;1.00
29777;DHT22;16677;52.224;7.484;2023-08-20T11:24:17;26.00;1.00
29777;DHT22;16677;52.224;7.484;2023-08-20T11:26:46;26.60;1.00
29777;DHT22;16677;52.224;7.484;2023-08-20T11:29:15;26.80;1.00
29777;DHT22;16677;52.224;7.484;2023-08-20T11:31:49;26.80;98.80
29777;DHT22;16677;52.224;7.484;2023-08-20T11:34:18;27.40;9.50
29777;DHT22;16677;52.224;7.484;2023-08-20T11:36:46;27.70;99.90
29777;DHT22;16677;52.224;7.484;2023-08-20T11:39:14;27.30;99.90
29777;DHT22;16677;52.224;7.484;2023-08-20T11:41:43;27.80;1.00
29777;DHT22;16677;52.224;7.484;2023-08-20T11:44:19;27.50;99.90
29777;DHT22;16677;52.224;7.484;2023-08-20T11:46:47;27.70;39.50
29777;DHT22;16677;52.224;7.484;2023-08-20T11:49:15;27.90;99.90
29777;DHT22;16677;52.224;7.484;2023-08-20T11:51:47;28.00;99.90
29777;DHT22;16677;52.224;7.484;2023-08-20T11:54:17;28.20;99.90
29777;DHT22;16677;52.224;7.484;2023-08-20T11:56:48;27.50;1.00
29777;DHT22;16677;52.224;7.484;2023-08-20T11:59:20;26.50;99.90
29777;DHT22;16677;52.224;7.484;2023-08-20T12:02:06;26.00;1.00
29777;DHT22;16677;52.224;7.484;2023-08-20T12:04:33;25.90;99.90
29777;DHT22;16677;52.224;7.484;2023-08-20T12:07:14;26.10;99.90
29777;DHT22;16677;52.224;7.484;2023-08-20T12:09:41;26.00;1.00
29777;DHT22;16677;52.224;7.484;2023-08-20T12:12:09;26.30;4.80
29777;DHT22;16677;52.224;7.484;2023-08-20T12:14:37;26.80;99.90
29777;DHT22;16677;52.224;7.484;2023-08-20T12:17:04;27.00;99.90
29777;DHT22;16677;52.224;7.484;2023-08-20T12:19:31;26.40;99.90
29777;DHT22;16677;52.224;7.484;2023-08-20T12:21:58;26.40;99.90
29777;DHT22;16677;52.224;7.484;2023-08-20T12:24:25;26.80;99.90
29777;DHT22;16677;52.224;7.484;2023-08-20T12:26:53;27.00;99.90
29777;DHT22;16677;52.224;7.484;2023-08-20T12:29:20;26.40;99.90
29777;DHT22;16677;52.224;7.484;2023-08-20T12:31:48;26.80;99.90
29777;DHT22;16677;52.224;7.484;2023-08-20T12:34:15;26.90;99.90
29777;DHT22;16677;52.224;7.484;2023-08-20T12:36:42;27.20;99.90
29777;DHT22;16677;52.224;7.484;2023-08-20T12:39:09;27.30;99.90
29777;DHT22;16677;52.224;7.484;2023-08-20T12:41:36;26.70;1.00
29777;DHT22;16677;52.224;7.484;2023-08-20T12:44:04;27.20;99.90
29777;DHT22;16677;52.224;7.484;2023-08-20T12:46:32;27.20;1.00
29777;DHT22;16677;52.224;7.484;2023-08-20T12:48:59;27.00;1.00
29777;DHT22;16677;52.224;7.484;2023-08-20T12:51:26;26.50;99.90
29777;DHT22;16677;52.224;7.484;2023-08-20T12:53:54;26.50;99.90
29777;DHT22;16677;52.224;7.484;2023-08-20T12:56:21;26.50;1.00
29777;DHT22;16677;52.224;7.484;2023-08-20T12:58:48;26.80;99.90
29777;DHT22;16677;52.224;7.484;2023-08-20T13:01:16;26.60;1.00
29777;DHT22;16677;52.224;7.484;2023-08-20T13:03:44;26.70;99.90
29777;DHT22;16677;52.224;7.484;2023-08-20T13:06:12;26.80;1.00
29777;DHT22;16677;52.224;7.484;2023-08-20T13:08:39;26.30;1.00
29777;DHT22;16677;52.224;7.484;2023-08-20T13:11:11;26.40;1.00
29777;DHT22;16677;52.224;7.484;2023-08-20T13:13:41;26.20;1.00
29777;DHT22;16677;52.224;7.484;2023-08-20T13:16:09;26.40;1.00
29777;DHT22;16677;52.224;7.484;2023-08-20T13:18:37;26.60;1.00
29777;DHT22;16677;52.224;7.484;2023-08-20T13:21:04;27.10;1.00
29777;DHT22;16677;52.224;7.484;2023-08-20T13:23:31;27.20;1.00
29777;DHT22;16677;52.224;7.484;2023-08-20T13:25:58;27.30;1.00
29777;DHT22;16677;52.224;7.484;2023-08-20T13:28:25;27.40;1.00
29777;DHT22;16677;52.224;7.484;2023-08-20T13:30:53;27.50;1.00
29777;DHT22;16677;52.224;7.484;2023-08-20T13:33:20;27.30;1.00
29777;DHT22;16677;52.224;7.484;2023-08-20T13:35:50;26.90;1.00
29777;DHT22;16677;52.224;7.484;2023-08-20T13:38:18;26.90;1.00
29777;DHT22;16677;52.224;7.484;2023-08-20T13:40:48;27.20;1.00
29777;DHT22;16677;52.224;7.484;2023-08-20T13:45:50;26.80;1.00
29777;DHT22;16677;52.224;7.484;2023-08-20T13:48:17;26.90;92.40
29777;DHT22;16677;52.224;7.484;2023-08-20T13:50:45;27.10;99.90
29777;DHT22;16677;52.224;7.484;2023-08-20T13:53:12;26.90;99.90
29777;DHT22;16677;52.224;7.484;2023-08-20T13:55:39;27.20;99.90
29777;DHT22;16677;52.224;7.484;2023-08-20T13:58:06;26.40;99.90
29777;DHT22;16677;52.224;7.484;2023-08-20T14:00:36;26.60;99.90
29777;DHT22;16677;52.224;7.484;2023-08-20T14:03:03;27.00;99.90
29777;DHT22;16677;52.224;7.484;2023-08-20T14:05:31;27.30;99.90
29777;DHT22;16677;52.224;7.484;2023-08-20T14:07:59;27.20;99.90
29777;DHT22;16677;52.224;7.484;2023-08-20T14:10:26;27.50;99.90
29777;DHT22;16677;52.224;7.484;2023-08-20T14:12:53;27.00;99.90
29777;DHT22;16677;52.224;7.484;2023-08-20T14:15:20;27.30;99.90
29777;DHT22;16677;52.224;7.484;2023-08-20T14:17:47;27.50;99.90
29777;DHT22;16677;52.224;7.484;2023-08-20T14:20:15;27.10;99.90
29777;DHT22;16677;52.224;7.484;2023-08-20T14:22:42;26.70;99.90
29777;DHT22;16677;52.224;7.484;2023-08-20T14:25:09;26.90;99.90
29777;DHT22;16677;52.224;7.484;2023-08-20T14:27:40;27.40;99.90
29777;DHT22;16677;52.224;7.484;2023-08-20T14:30:07;26.70;99.90
29777;DHT22;16677;52.224;7.484;2023-08-20T14:32:35;26.70;99.90
29777;DHT22;16677;52.224;7.484;2023-08-20T14:35:06;26.80;99.90
29777;DHT22;16677;52.224;7.484;2023-08-20T14:37:35;26.80;99.90
29777;DHT22;16677;52.224;7.484;2023-08-20T14:40:05;27.30;99.90
29777;DHT22;16677;52.224;7.484;2023-08-20T14:42:33;27.40;99.90
29777;DHT22;16677;52.224;7.484;2023-08-20T14:45:02;27.40;99.90
29777;DHT22;16677;52.224;7.484;2023-08-20T14:47:35;26.80;99.90
29777;DHT22;16677;52.224;7.484;2023-08-20T14:50:05;27.30;99.90
29777;DHT22;16677;52.224;7.484;2023-08-20T14:52:38;27.50;99.90
29777;DHT22;16677;52.224;7.484;2023-08-20T14:55:06;27.40;99.90
29777;DHT22;16677;52.224;7.484;2023-08-20T14:57:36;27.20;99.90
29777;DHT22;16677;52.224;7.484;2023-08-20T15:00:18;26.90;99.90
29777;DHT22;16677;52.224;7.484;2023-08-20T15:02:46;27.40;99.90
29777;DHT22;16677;52.224;7.484;2023-08-20T15:05:14;27.70;99.90
29777;DHT22;16677;52.224;7.484;2023-08-20T15:07:41;28.00;99.90
29777;DHT22;16677;52.224;7.484;2023-08-20T15:10:09;27.80;99.90
29777;DHT22;16677;52.224;7.484;2023-08-20T15:12:37;27.40;99.90
29777;DHT22;16677;52.224;7.484;2023-08-20T15:15:05;27.10;99.90
29777;DHT22;16677;52.224;7.484;2023-08-20T15:17:33;26.70;99.90
29777;DHT22;16677;52.224;7.484;2023-08-20T15:20:00;26.40;99.90
29777;DHT22;16677;52.224;7.484;2023-08-20T15:22:28;26.80;99.90
29777;DHT22;16677;52.224;7.484;2023-08-20T15:24:56;26.50;99.90
29777;DHT22;16677;52.224;7.484;2023-08-20T15:27:24;26.40;99.90
29777;DHT22;16677;52.224;7.484;2023-08-20T15:29:52;26.70;99.90
29777;DHT22;16677;52.224;7.484;2023-08-20T15:32:19;26.90;99.90
29777;DHT22;16677;52.224;7.484;2023-08-20T15:34:47;27.10;99.90
29777;DHT22;16677;52.224;7.484;2023-08-20T15:37:15;27.40;99.90
29777;DHT22;16677;52.224;7.484;2023-08-20T15:39:45;27.50;99.90
29777;DHT22;16677;52.224;7.484;2023-08-20T15:42:13;27.40;99.90
29777;DHT22;16677;52.224;7.484;2023-08-20T15:44:40;27.00;99.90
29777;DHT22;16677;52.224;7.484;2023-08-20T15:47:08;26.80;99.90
29777;DHT22;16677;52.224;7.484;2023-08-20T15:49:35;26.80;99.90
29777;DHT22;16677;52.224;7.484;2023-08-20T15:52:02;27.00;99.90
29777;DHT22;16677;52.224;7.484;2023-08-20T15:54:30;26.90;99.90
29777;DHT22;16677;52.224;7.484;2023-08-20T15:56:57;27.10;99.90
29777;DHT22;16677;52.224;7.484;2023-08-20T15:59:24;27.40;99.90
29777;DHT22;16677;52.224;7.484;2023-08-20T16:01:52;27.30;99.90
29777;DHT22;16677;52.224;7.484;2023-08-20T16:04:19;28.20;99.90
29777;DHT22;16677;52.224;7.484;2023-08-20T16:06:46;27.40;99.90